createdAt,value
2022-12-27T00:00:40.543Z,1.37
2022-12-27T00:03:07.843Z,1.10
2022-12-27T00:05:35.009Z,1.20
2022-12-27T00:08:02.138Z,1.07
2022-12-27T00:10:29.345Z,1.10
2022-12-27T00:12:56.446Z,1.13
2022-12-27T00:15:23.590Z,1.20
2022-12-27T00:17:50.919Z,1.10
2022-12-27T00:20:18.032Z,1.10
2022-12-27T00:22:45.144Z,1.30
2022-12-27T00:25:12.275Z,1.10
2022-12-27T00:27:39.662Z,1.03
2022-12-27T00:30:07.618Z,1.20
2022-12-27T00:32:35.055Z,1.47
2022-12-27T00:35:02.220Z,1.27
2022-12-27T00:37:29.313Z,1.00
2022-12-27T00:39:56.444Z,1.03
2022-12-27T00:42:23.562Z,1.20
2022-12-27T00:44:50.674Z,1.13
2022-12-27T00:47:17.875Z,1.10
2022-12-27T00:49:44.997Z,1.30
2022-12-27T00:52:12.133Z,0.90
2022-12-27T00:54:39.366Z,1.20
2022-12-27T00:57:06.483Z,1.10
2022-12-27T00:59:33.651Z,1.10
2022-12-27T01:02:01.007Z,1.03
2022-12-27T01:04:29.363Z,1.13
2022-12-27T01:06:56.499Z,1.13
2022-12-27T01:09:23.613Z,1.30
2022-12-27T01:11:50.750Z,1.30
2022-12-27T01:14:17.951Z,1.40
2022-12-27T01:16:45.103Z,1.20
2022-12-27T01:19:12.311Z,1.33
2022-12-27T01:21:39.453Z,1.50
2022-12-27T01:24:07.668Z,1.30
2022-12-27T01:26:34.877Z,1.67
2022-12-27T01:29:02.036Z,1.53
2022-12-27T01:31:29.644Z,1.53
2022-12-27T01:33:58.312Z,1.30
2022-12-27T01:36:26.276Z,1.73
2022-12-27T01:38:53.423Z,1.80
2022-12-27T01:41:43.963Z,1.70
2022-12-27T01:44:29.557Z,1.73
2022-12-27T01:46:56.698Z,1.53
2022-12-27T01:49:23.831Z,1.53
2022-12-27T01:51:50.936Z,1.80
2022-12-27T01:54:18.099Z,1.80
2022-12-27T01:56:45.220Z,1.60
2022-12-27T01:59:13.033Z,1.40
2022-12-27T02:01:44.696Z,1.60
2022-12-27T02:04:15.555Z,1.40
2022-12-27T02:06:43.057Z,1.50
2022-12-27T02:09:14.002Z,1.70
2022-12-27T02:11:52.190Z,1.50
2022-12-27T02:14:31.066Z,1.83
2022-12-27T02:16:59.091Z,1.50
2022-12-27T02:19:35.348Z,1.60
2022-12-27T02:22:21.139Z,1.50
2022-12-27T02:24:48.227Z,1.70
2022-12-27T02:27:33.983Z,1.80
2022-12-27T02:30:04.088Z,1.50
2022-12-27T02:32:37.098Z,1.67
2022-12-27T02:35:08.220Z,1.77
2022-12-27T02:37:39.012Z,1.70
2022-12-27T02:40:27.081Z,1.40
2022-12-27T02:43:13.728Z,1.50
2022-12-27T02:46:06.244Z,1.47
2022-12-27T02:48:51.852Z,1.50
2022-12-27T02:51:49.496Z,1.47
2022-12-27T02:54:39.378Z,1.40
2022-12-27T02:57:20.338Z,1.57
2022-12-27T03:03:23.934Z,1.33
2022-12-27T03:06:23.508Z,1.30
2022-12-27T03:09:09.121Z,1.30
2022-12-27T03:12:19.561Z,1.30
2022-12-27T03:15:07.397Z,1.60
2022-12-27T03:17:37.633Z,1.50
2022-12-27T03:20:28.255Z,1.43
2022-12-27T03:23:14.880Z,1.70
2022-12-27T03:25:43.418Z,1.40
2022-12-27T03:28:32.199Z,1.40
2022-12-27T03:31:24.165Z,1.70
2022-12-27T03:33:59.743Z,1.73
2022-12-27T03:36:46.147Z,1.63
2022-12-27T03:39:31.418Z,1.30
2022-12-27T03:42:20.023Z,1.53
2022-12-27T03:44:47.164Z,1.63
2022-12-27T03:47:34.528Z,1.60
2022-12-27T03:50:06.049Z,1.60
2022-12-27T03:52:37.673Z,1.40
2022-12-27T03:55:05.230Z,1.40
2022-12-27T03:57:32.500Z,1.50
2022-12-27T03:59:59.686Z,1.47
2022-12-27T04:02:26.922Z,1.60
2022-12-27T04:04:54.271Z,1.40
2022-12-27T04:07:21.382Z,1.30
2022-12-27T04:10:07.187Z,1.33
2022-12-27T04:12:53.078Z,1.20
2022-12-27T04:15:39.199Z,1.40
2022-12-27T04:18:24.968Z,1.50
2022-12-27T04:21:10.948Z,1.20
2022-12-27T04:23:57.054Z,1.30
2022-12-27T04:26:43.049Z,1.30
2022-12-27T04:29:29.121Z,1.60
2022-12-27T04:32:14.930Z,1.40
2022-12-27T04:34:45.093Z,1.40
2022-12-27T04:37:13.927Z,1.40
2022-12-27T04:39:41.041Z,1.37
2022-12-27T04:42:26.876Z,1.40
2022-12-27T04:45:15.404Z,1.23
2022-12-27T04:48:01.555Z,1.50
2022-12-27T04:50:48.562Z,1.30
2022-12-27T04:53:36.577Z,1.60
2022-12-27T04:56:03.754Z,1.10
2022-12-27T04:58:31.118Z,1.47
2022-12-27T05:01:18.415Z,1.30
2022-12-27T05:03:46.207Z,1.33
2022-12-27T05:06:13.423Z,1.40
2022-12-27T05:08:59.188Z,1.33
2022-12-27T05:11:45.512Z,1.30
2022-12-27T05:14:14.179Z,1.67
2022-12-27T05:16:42.372Z,1.30
2022-12-27T05:19:10.636Z,1.20
2022-12-27T05:22:01.760Z,1.40
2022-12-27T05:24:48.855Z,1.90
2022-12-27T05:27:16.208Z,1.40
2022-12-27T05:29:43.320Z,1.30
2022-12-27T05:32:13.215Z,1.53
2022-12-27T05:34:40.881Z,1.20
2022-12-27T05:37:08.038Z,1.70
2022-12-27T05:39:35.169Z,1.80
2022-12-27T05:42:03.206Z,1.27
2022-12-27T05:44:30.403Z,1.40
2022-12-27T05:46:57.607Z,1.53
2022-12-27T05:49:24.836Z,1.40
2022-12-27T05:51:51.995Z,1.30
2022-12-27T05:54:19.133Z,1.60
2022-12-27T05:56:46.265Z,1.40
2022-12-27T05:59:13.376Z,1.80
2022-12-27T06:01:40.555Z,1.80
2022-12-27T06:04:07.747Z,1.50
2022-12-27T06:06:35.395Z,1.60
2022-12-27T06:09:02.550Z,1.50
2022-12-27T06:11:29.723Z,1.53
2022-12-27T06:13:57.134Z,1.70
2022-12-27T06:16:24.435Z,1.47
2022-12-27T06:18:51.610Z,1.50
2022-12-27T06:21:20.230Z,1.50
2022-12-27T06:23:48.154Z,1.77
2022-12-27T06:26:16.981Z,1.43
2022-12-27T06:28:44.185Z,1.97
2022-12-27T06:31:11.635Z,1.57
2022-12-27T06:33:39.107Z,1.90
2022-12-27T06:36:07.717Z,1.40
2022-12-27T06:38:34.836Z,1.60
2022-12-27T06:41:03.028Z,1.57
2022-12-27T06:43:30.131Z,1.60
2022-12-27T06:45:58.398Z,1.93
2022-12-27T06:48:25.594Z,1.63
2022-12-27T06:50:52.685Z,1.60
2022-12-27T06:53:19.978Z,1.80
2022-12-27T06:55:47.138Z,1.83
2022-12-27T06:58:14.341Z,1.70
2022-12-27T07:00:42.162Z,1.73
2022-12-27T07:03:09.313Z,1.47
2022-12-27T07:05:36.854Z,1.80
2022-12-27T07:08:04.381Z,2.20
2022-12-27T07:10:31.789Z,1.70
2022-12-27T07:12:59.135Z,2.00
2022-12-27T07:15:26.270Z,2.00
2022-12-27T07:17:53.403Z,1.97
2022-12-27T07:20:20.533Z,2.27
2022-12-27T07:22:47.642Z,2.20
2022-12-27T07:25:14.751Z,2.57
2022-12-27T07:27:41.853Z,2.40
2022-12-27T07:30:09.303Z,2.20
2022-12-27T07:32:36.432Z,2.47
2022-12-27T07:35:03.535Z,2.50
2022-12-27T07:37:30.661Z,2.30
2022-12-27T07:39:57.776Z,2.37
2022-12-27T07:42:24.889Z,2.43
2022-12-27T07:44:52.033Z,2.20
2022-12-27T07:47:19.141Z,2.50
2022-12-27T07:49:46.256Z,2.33
2022-12-27T07:52:13.346Z,2.30
2022-12-27T07:54:40.456Z,2.60
2022-12-27T07:57:07.522Z,2.60
2022-12-27T07:59:34.668Z,2.30
2022-12-27T08:02:04.718Z,2.33
2022-12-27T08:04:32.753Z,2.20
2022-12-27T08:07:04.974Z,2.30
2022-12-27T08:09:34.341Z,2.07
2022-12-27T08:12:01.506Z,2.30
2022-12-27T08:14:29.577Z,2.50
2022-12-27T08:16:59.921Z,2.33
2022-12-27T08:19:27.107Z,2.67
2022-12-27T08:21:54.239Z,2.50
2022-12-27T08:24:21.342Z,2.37
2022-12-27T08:26:48.450Z,2.37
2022-12-27T08:29:15.574Z,2.33
2022-12-27T08:31:42.695Z,2.50
2022-12-27T08:34:09.793Z,2.43
2022-12-27T08:36:54.724Z,2.63
2022-12-27T08:39:22.898Z,2.73
2022-12-27T08:41:50.011Z,2.40
2022-12-27T08:44:17.140Z,2.73
2022-12-27T08:46:44.288Z,2.77
2022-12-27T08:49:11.445Z,3.00
2022-12-27T08:51:41.205Z,2.60
2022-12-27T08:54:08.988Z,2.43
2022-12-27T08:56:36.434Z,2.83
2022-12-27T08:59:03.638Z,2.90
2022-12-27T09:01:30.868Z,2.90
2022-12-27T09:03:58.086Z,3.00
2022-12-27T09:06:27.639Z,3.00
2022-12-27T09:08:56.010Z,3.40
2022-12-27T09:11:24.741Z,2.90
2022-12-27T09:13:51.888Z,2.67
2022-12-27T09:16:21.113Z,2.67
2022-12-27T09:18:49.506Z,2.53
2022-12-27T09:21:17.275Z,2.37
2022-12-27T09:23:44.869Z,2.17
2022-12-27T09:26:16.881Z,2.30
2022-12-27T09:28:44.045Z,2.50
2022-12-27T09:31:11.783Z,2.40
2022-12-27T09:33:39.050Z,2.20
2022-12-27T09:36:07.550Z,2.50
2022-12-27T09:38:35.246Z,2.20
2022-12-27T09:41:04.499Z,2.10
2022-12-27T09:43:57.949Z,2.20
2022-12-27T09:46:27.792Z,1.90
2022-12-27T09:48:56.311Z,1.80
2022-12-27T09:51:30.339Z,1.90
2022-12-27T09:53:57.440Z,1.80
2022-12-27T09:56:46.970Z,1.60
2022-12-27T09:59:19.988Z,2.00
2022-12-27T10:01:49.118Z,2.20
2022-12-27T10:04:17.799Z,1.90
2022-12-27T10:06:50.743Z,2.10
2022-12-27T10:09:33.171Z,2.03
2022-12-27T10:12:06.157Z,2.10
2022-12-27T10:14:42.053Z,2.17
2022-12-27T10:17:11.941Z,1.97
2022-12-27T10:19:46.270Z,2.20
2022-12-27T10:22:33.772Z,1.70
2022-12-27T10:25:01.934Z,1.80
2022-12-27T10:27:30.761Z,1.90
2022-12-27T10:29:59.565Z,1.63
2022-12-27T10:32:26.824Z,2.47
2022-12-27T10:34:59.918Z,1.90
2022-12-27T10:37:27.021Z,1.50
2022-12-27T10:39:54.161Z,1.90
2022-12-27T10:42:35.377Z,1.70
2022-12-27T10:45:25.484Z,1.60
2022-12-27T10:47:53.164Z,2.00
2022-12-27T10:50:22.809Z,1.60
2022-12-27T10:52:54.126Z,1.60
2022-12-27T10:55:34.944Z,1.67
2022-12-27T10:58:28.420Z,2.00
2022-12-27T11:00:56.669Z,1.60
2022-12-27T11:03:26.216Z,1.60
2022-12-27T11:06:03.243Z,1.80
2022-12-27T11:08:30.716Z,1.83
2022-12-27T11:11:14.372Z,1.70
2022-12-27T11:13:44.268Z,1.90
2022-12-27T11:16:16.508Z,1.90
2022-12-27T11:18:48.951Z,1.70
2022-12-27T11:21:24.068Z,1.80
2022-12-27T11:23:56.303Z,1.80
2022-12-27T11:26:25.148Z,1.73
2022-12-27T11:28:57.930Z,1.80
2022-12-27T11:31:27.804Z,1.53
2022-12-27T11:33:56.278Z,2.13
2022-12-27T11:36:28.241Z,1.50
2022-12-27T11:38:56.052Z,1.60
2022-12-27T11:41:29.275Z,1.57
2022-12-27T11:44:23.012Z,1.80
2022-12-27T11:46:57.149Z,1.90
2022-12-27T11:49:29.640Z,1.60
2022-12-27T11:51:59.494Z,2.33
2022-12-27T11:54:38.498Z,1.67
2022-12-27T11:57:05.599Z,1.80
2022-12-27T11:59:40.222Z,1.80
2022-12-27T12:02:27.108Z,1.50
2022-12-27T12:05:12.773Z,1.80
2022-12-27T12:07:51.686Z,1.90
2022-12-27T12:10:35.862Z,1.60
2022-12-27T12:13:02.947Z,1.60
2022-12-27T12:15:48.990Z,1.63
2022-12-27T12:18:25.242Z,1.70
2022-12-27T12:21:04.909Z,1.83
2022-12-27T12:23:53.885Z,1.40
2022-12-27T12:26:25.962Z,1.87
2022-12-27T12:28:58.754Z,1.30
2022-12-27T12:31:41.918Z,1.50
2022-12-27T12:34:33.622Z,1.80
2022-12-27T12:37:19.234Z,1.70
2022-12-27T12:39:52.510Z,1.80
2022-12-27T12:42:22.412Z,1.67
2022-12-27T12:45:06.581Z,1.70
2022-12-27T12:47:39.613Z,1.70
2022-12-27T12:50:13.764Z,2.00
2022-12-27T12:52:47.330Z,1.73
2022-12-27T12:55:21.209Z,1.80
2022-12-27T12:58:00.101Z,1.70
2022-12-27T13:00:28.425Z,2.30
2022-12-27T13:03:08.019Z,1.60
2022-12-27T13:05:41.324Z,1.73
2022-12-27T13:08:13.683Z,2.03
2022-12-27T13:10:59.573Z,1.87
2022-12-27T13:13:44.972Z,1.80
2022-12-27T13:16:12.221Z,1.47
2022-12-27T13:18:39.371Z,1.43
2022-12-27T13:21:45.131Z,1.30
2022-12-27T13:24:12.366Z,1.40
2022-12-27T13:26:41.975Z,1.60
2022-12-27T13:29:20.056Z,1.70
2022-12-27T13:32:05.825Z,1.57
2022-12-27T13:34:45.168Z,1.50
2022-12-27T13:37:19.225Z,1.47
2022-12-27T13:40:11.416Z,1.63
2022-12-27T13:42:57.369Z,1.50
2022-12-27T13:45:47.628Z,1.73
2022-12-27T13:48:30.927Z,1.57
2022-12-27T13:51:04.547Z,1.50
2022-12-27T13:53:46.805Z,1.50
2022-12-27T13:56:52.810Z,2.10
2022-12-27T13:59:29.388Z,1.53
2022-12-27T14:01:56.524Z,1.60
2022-12-27T14:04:59.518Z,1.83
2022-12-27T14:07:30.144Z,1.87
2022-12-27T14:10:03.560Z,1.80
2022-12-27T14:12:48.734Z,1.40
2022-12-27T14:15:27.582Z,1.73
2022-12-27T14:18:01.886Z,1.67
2022-12-27T14:20:47.886Z,1.70
2022-12-27T14:23:33.864Z,1.50
2022-12-27T14:26:07.105Z,1.53
2022-12-27T14:28:59.318Z,2.00
2022-12-27T14:31:36.204Z,1.80
2022-12-27T14:34:21.944Z,1.70
2022-12-27T14:36:52.025Z,1.80
2022-12-27T14:39:28.018Z,1.67
2022-12-27T14:41:58.185Z,1.60
2022-12-27T14:44:59.414Z,2.00
2022-12-27T14:47:46.875Z,1.50
2022-12-27T14:50:16.745Z,1.83
2022-12-27T14:52:43.811Z,1.70
2022-12-27T14:55:23.298Z,1.73
2022-12-27T14:58:06.952Z,1.83
2022-12-27T15:00:51.788Z,2.40
2022-12-27T15:03:21.948Z,2.50
2022-12-27T15:06:07.670Z,2.67
2022-12-27T15:08:43.983Z,2.50
2022-12-27T15:11:23.086Z,2.27
2022-12-27T15:13:56.059Z,2.40
2022-12-27T15:16:32.097Z,1.80
2022-12-27T15:19:08.328Z,1.93
2022-12-27T15:21:43.665Z,2.77
2022-12-27T15:24:10.748Z,2.13
2022-12-27T15:26:56.304Z,2.00
2022-12-27T15:29:32.030Z,2.27
2022-12-27T15:32:08.583Z,2.43
2022-12-27T15:34:41.422Z,2.10
2022-12-27T15:37:28.463Z,2.20
2022-12-27T15:39:55.580Z,2.67
2022-12-27T15:42:48.171Z,2.27
2022-12-27T15:45:23.196Z,2.20
2022-12-27T15:48:02.345Z,2.40
2022-12-27T15:50:32.426Z,2.47
2022-12-27T15:53:02.350Z,2.33
2022-12-27T15:55:48.168Z,2.30
2022-12-27T15:58:16.598Z,2.20
2022-12-27T16:00:44.457Z,2.00
2022-12-27T16:03:29.993Z,2.20
2022-12-27T16:05:57.314Z,2.57
2022-12-27T16:08:25.615Z,2.30
2022-12-27T16:10:52.863Z,2.50
2022-12-27T16:13:37.632Z,2.20
2022-12-27T16:16:27.756Z,2.13
2022-12-27T16:19:00.710Z,2.40
2022-12-27T16:21:36.845Z,2.40
2022-12-27T16:24:11.645Z,2.33
2022-12-27T16:26:51.197Z,2.30
2022-12-27T16:29:18.363Z,2.53
2022-12-27T16:31:46.503Z,2.40
2022-12-27T16:34:19.619Z,2.27
2022-12-27T16:36:47.656Z,1.93
2022-12-27T16:39:17.765Z,2.70
2022-12-27T16:41:50.732Z,2.20
2022-12-27T16:44:28.108Z,2.30
2022-12-27T16:47:13.798Z,2.67
2022-12-27T16:49:49.046Z,2.67
2022-12-27T16:52:25.330Z,2.10
2022-12-27T16:55:18.428Z,2.40
2022-12-27T16:57:46.652Z,2.10
2022-12-27T17:00:16.867Z,2.60
2022-12-27T17:02:46.360Z,2.40
2022-12-27T17:05:16.327Z,2.40
2022-12-27T17:07:56.005Z,2.23
2022-12-27T17:10:31.941Z,3.10
2022-12-27T17:13:04.855Z,2.90
2022-12-27T17:15:32.472Z,2.53
2022-12-27T17:18:46.249Z,2.73
2022-12-27T17:21:30.173Z,2.53
2022-12-27T17:23:59.531Z,3.30
2022-12-27T17:26:26.616Z,2.90
2022-12-27T17:29:08.597Z,2.73
2022-12-27T17:31:50.600Z,2.70
2022-12-27T17:34:22.386Z,3.07
2022-12-27T17:36:55.531Z,2.63
2022-12-27T17:39:32.446Z,2.80
2022-12-27T17:45:42.199Z,3.00
2022-12-27T17:48:13.355Z,2.97
2022-12-27T17:50:43.856Z,2.93
2022-12-27T17:53:29.452Z,2.90
2022-12-27T17:56:30.147Z,2.90
2022-12-27T17:59:04.591Z,2.93
2022-12-27T18:01:33.431Z,3.17
2022-12-27T18:04:01.191Z,3.50
2022-12-27T18:06:28.365Z,3.67
2022-12-27T18:08:56.955Z,3.10
2022-12-27T18:11:28.071Z,3.40
2022-12-27T18:13:58.876Z,3.40
2022-12-27T18:16:31.929Z,3.10
2022-12-27T18:19:00.716Z,3.60
2022-12-27T18:21:29.274Z,3.43
2022-12-27T18:23:56.745Z,3.03
2022-12-27T18:26:38.704Z,3.00
2022-12-27T18:29:06.471Z,3.00
2022-12-27T18:31:36.812Z,2.97
2022-12-27T18:34:08.737Z,2.90
2022-12-27T18:36:46.352Z,2.47
2022-12-27T18:39:19.431Z,2.10
2022-12-27T18:41:50.609Z,2.40
2022-12-27T18:44:44.142Z,2.70
2022-12-27T18:47:16.483Z,2.83
2022-12-27T18:49:44.635Z,3.10
2022-12-27T18:52:13.493Z,2.70
2022-12-27T18:54:40.581Z,2.80
2022-12-27T18:57:25.368Z,2.70
2022-12-27T19:00:00.835Z,2.80
2022-12-27T19:02:35.662Z,3.10
2022-12-27T19:05:22.848Z,3.60
2022-12-27T19:07:52.081Z,3.90
2022-12-27T19:10:20.373Z,3.60
2022-12-27T19:12:47.614Z,3.70
2022-12-27T19:15:20.456Z,4.00
2022-12-27T19:17:49.273Z,3.70
2022-12-27T19:20:24.137Z,4.03
2022-12-27T19:22:53.118Z,4.47
2022-12-27T19:25:24.818Z,4.53
2022-12-27T19:28:01.012Z,5.37
2022-12-27T19:30:36.088Z,4.80
2022-12-27T19:33:05.261Z,4.30
2022-12-27T19:35:32.371Z,4.60
2022-12-27T19:38:01.535Z,4.70
2022-12-27T19:40:28.702Z,5.40
2022-12-27T19:42:55.811Z,7.20
2022-12-27T19:45:22.908Z,7.67
2022-12-27T19:47:51.402Z,7.40
2022-12-27T19:50:18.563Z,7.60
2022-12-27T19:52:47.436Z,7.60
2022-12-27T19:55:19.006Z,7.17
2022-12-27T19:57:46.173Z,6.27
2022-12-27T20:00:16.735Z,6.03
2022-12-27T20:02:44.062Z,6.27
2022-12-27T20:05:11.916Z,6.33
2022-12-27T20:07:39.914Z,5.27
2022-12-27T20:10:07.825Z,5.77
2022-12-27T20:12:35.578Z,6.17
2022-12-27T20:15:02.732Z,6.50
2022-12-27T20:17:32.452Z,5.33
2022-12-27T20:19:59.623Z,5.37
2022-12-27T20:22:26.753Z,4.73
2022-12-27T20:24:53.865Z,6.60
2022-12-27T20:27:23.835Z,5.23
2022-12-27T20:29:51.067Z,4.33
2022-12-27T20:32:18.409Z,4.07
2022-12-27T20:34:45.553Z,7.70
2022-12-27T20:37:12.637Z,6.17
2022-12-27T20:39:39.816Z,6.13
2022-12-27T20:42:06.968Z,17.40
2022-12-27T20:44:34.292Z,4.63
2022-12-27T20:47:01.393Z,4.17
2022-12-27T20:49:28.525Z,3.70
2022-12-27T20:51:55.625Z,3.43
2022-12-27T20:54:22.997Z,3.33
2022-12-27T20:56:50.081Z,3.53
2022-12-27T20:59:17.192Z,13.07
2022-12-27T21:01:44.394Z,11.70
2022-12-27T21:04:11.573Z,12.73
2022-12-27T21:06:38.792Z,13.80
2022-12-27T21:09:08.279Z,10.80
2022-12-27T21:11:36.055Z,11.67
2022-12-27T21:14:03.949Z,12.57
2022-12-27T21:16:32.402Z,14.13
2022-12-27T21:19:03.452Z,12.53
2022-12-27T21:21:30.839Z,13.03
2022-12-27T21:23:58.694Z,12.53
2022-12-27T21:26:30.396Z,13.00
2022-12-27T21:28:57.934Z,11.63
2022-12-27T21:31:25.457Z,11.57
2022-12-27T21:33:52.654Z,12.57
2022-12-27T21:36:21.598Z,10.50
2022-12-27T21:38:49.599Z,10.53
2022-12-27T21:41:17.918Z,10.23
2022-12-27T21:43:45.573Z,11.40
2022-12-27T21:46:15.466Z,11.20
2022-12-27T21:48:42.840Z,11.10
2022-12-27T21:51:12.114Z,10.80
2022-12-27T21:53:39.410Z,9.67
2022-12-27T21:56:07.129Z,7.67
2022-12-27T21:58:35.430Z,8.37
2022-12-27T22:01:08.197Z,11.57
2022-12-27T22:03:37.120Z,34.20
2022-12-27T22:06:13.741Z,18.10
2022-12-27T22:08:41.601Z,16.00
2022-12-27T22:11:08.712Z,17.67
2022-12-27T22:13:35.890Z,15.57
2022-12-27T22:16:03.782Z,14.33
2022-12-27T22:18:31.988Z,17.93
2022-12-27T22:21:00.885Z,11.23
2022-12-27T22:23:35.118Z,11.20
2022-12-27T22:26:02.222Z,12.43
2022-12-27T22:28:29.511Z,15.20
2022-12-27T22:30:56.930Z,16.03
2022-12-27T22:33:24.087Z,18.80
2022-12-27T22:35:51.172Z,18.43
2022-12-27T22:38:18.272Z,16.97
2022-12-27T22:40:46.465Z,15.73
2022-12-27T22:43:13.974Z,14.37
2022-12-27T22:45:42.318Z,15.10
2022-12-27T22:48:09.601Z,13.97
2022-12-27T22:50:38.041Z,13.70
2022-12-27T22:53:05.355Z,13.83
2022-12-27T22:55:32.432Z,12.83
2022-12-27T22:57:59.528Z,13.40
2022-12-27T23:00:26.615Z,12.97
2022-12-27T23:02:53.782Z,10.80
2022-12-27T23:05:20.901Z,9.53
2022-12-27T23:08:06.058Z,9.00
2022-12-27T23:10:34.048Z,10.27
2022-12-27T23:13:01.807Z,10.30
2022-12-27T23:15:28.915Z,12.47
2022-12-27T23:17:55.989Z,14.00
2022-12-27T23:20:23.140Z,13.97
2022-12-27T23:22:50.225Z,11.90
2022-12-27T23:25:17.361Z,11.37
2022-12-27T23:27:44.437Z,11.13
2022-12-27T23:30:11.948Z,10.70
2022-12-27T23:32:39.038Z,12.30
2022-12-27T23:35:06.258Z,11.73
2022-12-27T23:37:33.412Z,10.93
2022-12-27T23:40:00.527Z,11.33
2022-12-27T23:42:27.695Z,10.60
2022-12-27T23:44:54.805Z,10.60
2022-12-27T23:47:21.912Z,10.40
2022-12-27T23:49:49.017Z,11.73
2022-12-27T23:52:16.438Z,14.07
2022-12-27T23:54:43.534Z,11.60
2022-12-27T23:57:20.607Z,13.60
2022-12-27T23:59:49.749Z,13.20
